createdAt,value
2023-04-02T00:01:39.061Z,1.85
2023-04-02T00:04:23.700Z,1.81
2023-04-02T00:07:33.853Z,1.84
2023-04-02T00:10:05.391Z,1.76
2023-04-02T00:12:35.483Z,1.79
2023-04-02T00:15:03.983Z,1.71
2023-04-02T00:17:32.061Z,1.78
2023-04-02T00:20:08.382Z,1.77
2023-04-02T00:22:45.811Z,1.80
2023-04-02T00:25:16.176Z,1.77
2023-04-02T00:27:46.966Z,1.70
2023-04-02T00:30:16.655Z,1.72
2023-04-02T00:32:46.759Z,1.82
2023-04-02T00:35:29.306Z,1.77
2023-04-02T00:37:58.139Z,1.75
2023-04-02T00:40:32.403Z,1.74
2023-04-02T00:43:04.497Z,1.76
2023-04-02T00:45:39.428Z,1.78
2023-04-02T00:48:33.679Z,1.67
2023-04-02T00:51:37.329Z,1.70
2023-04-02T00:54:16.527Z,1.72
2023-04-02T00:56:55.258Z,1.70
2023-04-02T00:59:48.143Z,1.57
2023-04-02T01:02:18.716Z,1.70
2023-04-02T01:05:23.710Z,1.54
2023-04-02T01:08:34.349Z,1.60
2023-04-02T01:12:03.239Z,1.61
2023-04-02T01:15:22.362Z,1.58
2023-04-02T01:18:41.340Z,1.59
2023-04-02T01:21:53.032Z,1.63
2023-04-02T01:24:33.241Z,1.72
2023-04-02T01:27:47.480Z,1.64
2023-04-02T01:30:21.288Z,1.48
2023-04-02T01:32:54.475Z,1.52
2023-04-02T01:35:34.364Z,1.48
2023-04-02T01:39:05.672Z,1.53
2023-04-02T01:42:20.670Z,1.51
2023-04-02T01:45:01.068Z,1.50
2023-04-02T01:47:33.378Z,1.45
2023-04-02T01:50:32.102Z,1.37
2023-04-02T01:53:12.900Z,1.35
2023-04-02T01:55:54.237Z,1.66
2023-04-02T01:58:31.907Z,1.46
2023-04-02T02:01:19.243Z,1.34
2023-04-02T02:03:53.155Z,1.34
2023-04-02T02:06:24.570Z,1.37
2023-04-02T02:09:12.633Z,1.38
2023-04-02T02:11:43.310Z,1.56
2023-04-02T02:14:24.851Z,1.46
2023-04-02T02:17:02.547Z,1.37
2023-04-02T02:19:57.371Z,1.34
2023-04-02T02:22:39.247Z,1.48
2023-04-02T02:25:36.308Z,1.37
2023-04-02T02:28:27.865Z,1.34
2023-04-02T02:31:28.099Z,1.35
2023-04-02T02:34:18.847Z,1.38
2023-04-02T02:37:06.815Z,1.43
2023-04-02T02:39:53.916Z,1.34
2023-04-02T02:42:51.404Z,1.39
2023-04-02T02:45:31.372Z,1.40
2023-04-02T02:48:05.371Z,1.42
2023-04-02T02:50:37.273Z,1.40
2023-04-02T02:53:25.219Z,1.34
2023-04-02T02:56:02.204Z,1.43
2023-04-02T02:58:35.082Z,1.37
2023-04-02T03:01:06.292Z,1.44
2023-04-02T03:03:36.971Z,1.43
2023-04-02T03:06:16.828Z,1.38
2023-04-02T03:09:03.897Z,1.26
2023-04-02T03:12:11.269Z,1.33
2023-04-02T03:15:00.655Z,1.30
2023-04-02T03:17:47.060Z,1.25
2023-04-02T03:20:50.222Z,1.16
2023-04-02T03:23:51.328Z,1.29
2023-04-02T03:26:51.591Z,1.26
2023-04-02T03:29:34.367Z,1.29
2023-04-02T03:32:39.412Z,1.28
2023-04-02T03:35:34.812Z,1.24
2023-04-02T03:38:27.595Z,1.28
2023-04-02T03:41:40.132Z,1.32
2023-04-02T03:44:34.997Z,1.26
2023-04-02T03:47:25.423Z,1.33
2023-04-02T03:50:21.814Z,1.40
2023-04-02T03:52:53.050Z,1.34
2023-04-02T03:55:32.810Z,1.31
2023-04-02T03:58:25.821Z,1.26
2023-04-02T04:01:20.598Z,1.28
2023-04-02T04:03:57.916Z,1.24
2023-04-02T04:06:37.452Z,1.30
2023-04-02T04:09:30.764Z,1.35
2023-04-02T04:12:36.217Z,1.26
2023-04-02T04:15:54.988Z,1.37
2023-04-02T04:19:04.370Z,1.23
2023-04-02T04:21:38.031Z,1.40
2023-04-02T04:24:22.787Z,1.23
2023-04-02T04:27:36.248Z,1.38
2023-04-02T04:30:51.032Z,1.24
2023-04-02T04:33:35.012Z,1.19
2023-04-02T04:36:27.881Z,1.27
2023-04-02T04:39:18.034Z,1.19
2023-04-02T04:41:51.195Z,1.30
2023-04-02T04:44:45.525Z,1.27
2023-04-02T04:47:37.522Z,1.55
2023-04-02T04:50:49.321Z,1.30
2023-04-02T04:53:28.874Z,1.23
2023-04-02T04:56:18.669Z,1.34
2023-04-02T04:59:14.061Z,1.34
2023-04-02T05:02:23.806Z,1.29
2023-04-02T05:04:54.141Z,1.34
2023-04-02T05:07:51.338Z,1.36
2023-04-02T05:10:44.501Z,1.33
2023-04-02T05:13:47.601Z,1.53
2023-04-02T05:16:38.786Z,1.46
2023-04-02T05:19:31.662Z,1.41
2023-04-02T05:22:28.333Z,1.37
2023-04-02T05:25:14.639Z,1.49
2023-04-02T05:28:11.614Z,1.59
2023-04-02T05:31:03.235Z,1.49
2023-04-02T05:33:38.793Z,1.58
2023-04-02T05:36:24.469Z,1.54
2023-04-02T05:38:58.637Z,1.52
2023-04-02T05:41:47.715Z,1.49
2023-04-02T05:44:30.115Z,1.49
2023-04-02T05:47:14.464Z,1.50
2023-04-02T05:50:10.626Z,1.55
2023-04-02T05:52:57.092Z,1.66
2023-04-02T05:55:48.889Z,1.66
2023-04-02T05:58:53.128Z,1.71
2023-04-02T06:01:49.563Z,1.71
2023-04-02T06:04:33.297Z,1.75
2023-04-02T06:07:21.850Z,1.81
2023-04-02T06:10:24.791Z,1.84
2023-04-02T06:13:04.321Z,1.88
2023-04-02T06:15:39.253Z,2.19
2023-04-02T06:18:31.372Z,2.09
2023-04-02T06:21:00.931Z,2.13
2023-04-02T06:23:52.773Z,2.17
2023-04-02T06:26:38.220Z,2.24
2023-04-02T06:29:14.131Z,2.16
2023-04-02T06:32:02.209Z,2.17
2023-04-02T06:34:33.676Z,2.11
2023-04-02T06:37:41.818Z,2.11
2023-04-02T06:40:42.822Z,2.26
2023-04-02T06:43:36.456Z,2.37
2023-04-02T06:46:51.150Z,2.28
2023-04-02T06:49:53.633Z,2.29
2023-04-02T06:52:43.583Z,2.40
2023-04-02T06:55:48.989Z,2.31
2023-04-02T06:58:21.069Z,2.47
2023-04-02T07:00:51.729Z,2.47
2023-04-02T07:03:30.753Z,2.52
2023-04-02T07:06:03.903Z,2.51
2023-04-02T07:08:34.072Z,2.65
2023-04-02T07:11:04.199Z,2.80
2023-04-02T07:13:34.393Z,2.76
2023-04-02T07:16:05.274Z,2.67
2023-04-02T07:18:35.588Z,2.85
2023-04-02T07:21:06.193Z,2.93
2023-04-02T07:23:36.767Z,3.01
2023-04-02T07:26:13.865Z,2.91
2023-04-02T07:28:44.842Z,2.69
2023-04-02T07:31:24.626Z,2.76
2023-04-02T07:34:00.315Z,2.68
2023-04-02T07:36:30.799Z,2.65
2023-04-02T07:39:01.510Z,2.86
2023-04-02T07:41:31.657Z,3.13
2023-04-02T07:44:01.802Z,3.81
2023-04-02T07:46:31.952Z,3.79
2023-04-02T07:49:02.077Z,3.91
2023-04-02T07:51:32.598Z,3.65
2023-04-02T07:54:03.048Z,3.64
2023-04-02T07:56:33.247Z,3.52
2023-04-02T07:59:05.547Z,3.65
2023-04-02T08:01:35.742Z,3.73
2023-04-02T08:04:08.014Z,4.40
2023-04-02T08:06:38.354Z,5.03
2023-04-02T08:09:08.479Z,5.57
2023-04-02T08:11:38.637Z,5.86
2023-04-02T08:14:10.142Z,5.63
2023-04-02T08:16:56.322Z,5.59
2023-04-02T08:19:26.746Z,5.19
2023-04-02T08:21:57.344Z,4.95
2023-04-02T08:24:27.499Z,4.83
2023-04-02T08:26:55.244Z,4.91
2023-04-02T08:29:23.922Z,5.00
2023-04-02T08:31:54.064Z,4.69
2023-04-02T08:34:24.200Z,4.62
2023-04-02T08:36:59.135Z,4.84
2023-04-02T08:39:33.146Z,4.79
2023-04-02T08:42:46.675Z,4.71
2023-04-02T08:45:32.447Z,4.51
2023-04-02T08:48:05.528Z,4.51
2023-04-02T08:50:43.495Z,4.63
2023-04-02T08:53:29.473Z,4.65
2023-04-02T08:56:19.207Z,4.57
2023-04-02T08:58:58.282Z,4.74
2023-04-02T09:02:03.793Z,4.96
2023-04-02T09:04:35.218Z,5.00
2023-04-02T09:07:05.518Z,4.87
2023-04-02T09:09:39.174Z,4.91
2023-04-02T09:12:30.562Z,4.79
2023-04-02T09:15:12.512Z,4.80
2023-04-02T09:17:53.624Z,4.68
2023-04-02T09:20:28.741Z,4.59
2023-04-02T09:22:59.672Z,4.71
2023-04-02T09:25:32.446Z,4.57
2023-04-02T09:28:05.985Z,4.71
2023-04-02T09:31:10.901Z,4.87
2023-04-02T09:33:49.191Z,4.71
2023-04-02T09:36:40.180Z,4.62
2023-04-02T09:39:23.512Z,4.51
2023-04-02T09:42:04.871Z,4.46
2023-04-02T09:44:35.894Z,4.41
2023-04-02T09:47:27.436Z,4.38
2023-04-02T09:50:23.559Z,5.19
2023-04-02T09:52:51.953Z,6.56
2023-04-02T09:55:31.090Z,7.73
2023-04-02T09:58:16.676Z,7.89
2023-04-02T10:00:54.176Z,7.07
2023-04-02T10:03:33.271Z,6.35
2023-04-02T10:06:14.275Z,5.68
2023-04-02T10:08:47.366Z,5.28
2023-04-02T10:11:36.384Z,5.02
2023-04-02T10:14:30.592Z,4.97
2023-04-02T10:17:32.810Z,5.22
2023-04-02T10:20:29.304Z,5.63
2023-04-02T10:22:59.625Z,5.30
2023-04-02T10:25:43.891Z,5.63
2023-04-02T10:29:04.418Z,5.70
2023-04-02T10:32:00.153Z,6.05
2023-04-02T10:35:06.029Z,5.85
2023-04-02T10:37:47.265Z,6.09
2023-04-02T10:40:46.602Z,6.15
2023-04-02T10:44:19.715Z,6.32
2023-04-02T10:47:38.312Z,6.38
2023-04-02T10:51:03.668Z,6.67
2023-04-02T10:53:58.726Z,6.12
2023-04-02T10:56:44.048Z,6.20
2023-04-02T10:59:31.133Z,6.35
2023-04-02T11:02:44.933Z,6.13
2023-04-02T11:05:57.626Z,6.02
2023-04-02T11:08:40.565Z,5.99
2023-04-02T11:11:13.404Z,6.36
2023-04-02T11:14:36.734Z,6.52
2023-04-02T11:17:08.495Z,6.48
2023-04-02T11:19:38.155Z,6.56
2023-04-02T11:22:25.227Z,6.44
2023-04-02T11:24:58.895Z,6.37
2023-04-02T11:27:34.332Z,6.23
2023-04-02T11:30:16.413Z,6.01
2023-04-02T11:32:49.857Z,5.99
2023-04-02T11:35:31.988Z,6.00
2023-04-02T11:38:11.043Z,5.88
2023-04-02T11:40:58.401Z,6.00
2023-04-02T11:43:34.485Z,5.85
2023-04-02T11:46:30.276Z,6.11
2023-04-02T11:49:56.671Z,6.28
2023-04-02T11:52:46.997Z,6.12
2023-04-02T11:55:36.545Z,6.35
2023-04-02T11:59:35.489Z,6.09
2023-04-02T12:03:17.422Z,5.91
2023-04-02T12:06:06.704Z,6.01
2023-04-02T12:08:58.212Z,6.08
2023-04-02T12:11:42.143Z,6.08
2023-04-02T12:14:36.697Z,6.54
2023-04-02T12:17:32.674Z,7.16
2023-04-02T12:20:29.526Z,7.67
2023-04-02T12:23:00.169Z,7.58
2023-04-02T12:25:40.912Z,7.61
2023-04-02T12:28:20.805Z,7.50
2023-04-02T12:31:11.643Z,7.82
2023-04-02T12:33:43.643Z,8.03
2023-04-02T12:36:16.162Z,8.03
2023-04-02T12:38:53.869Z,8.18
2023-04-02T12:41:37.442Z,8.52
2023-04-02T12:44:18.187Z,8.27
2023-04-02T12:46:52.424Z,7.80
2023-04-02T12:49:43.324Z,7.61
2023-04-02T12:52:20.108Z,7.83
2023-04-02T12:55:05.142Z,8.01
2023-04-02T12:57:39.878Z,7.90
2023-04-02T13:00:21.836Z,7.67
2023-04-02T13:03:06.594Z,8.05
2023-04-02T13:05:46.760Z,8.44
2023-04-02T13:08:42.539Z,8.79
2023-04-02T13:11:12.896Z,8.45
2023-04-02T13:13:47.368Z,8.70
2023-04-02T13:16:17.877Z,8.40
2023-04-02T13:18:50.321Z,8.57
2023-04-02T13:21:19.754Z,8.30
2023-04-02T13:23:50.009Z,7.98
2023-04-02T13:26:27.340Z,8.01
2023-04-02T13:29:18.956Z,8.06
2023-04-02T13:31:50.117Z,8.15
2023-04-02T13:34:20.674Z,8.58
2023-04-02T13:36:51.006Z,9.11
2023-04-02T13:39:21.829Z,9.57
2023-04-02T13:42:04.468Z,10.13
2023-04-02T13:44:39.638Z,10.14
2023-04-02T13:47:15.133Z,9.38
2023-04-02T13:49:45.221Z,8.91
2023-04-02T13:52:17.767Z,8.46
2023-04-02T13:55:00.792Z,8.34
2023-04-02T13:57:30.128Z,8.67
2023-04-02T13:59:59.815Z,8.48
2023-04-02T14:02:30.326Z,8.53
2023-04-02T14:05:34.831Z,8.44
2023-04-02T14:09:01.867Z,7.92
2023-04-02T14:12:11.406Z,7.78
2023-04-02T14:14:50.844Z,7.58
2023-04-02T14:18:09.716Z,8.82
2023-04-02T14:21:22.269Z,8.74
2023-04-02T14:24:27.310Z,8.31
2023-04-02T14:27:33.379Z,8.57
2023-04-02T14:30:42.250Z,8.19
2023-04-02T14:33:33.750Z,7.49
2023-04-02T14:37:02.230Z,7.72
2023-04-02T14:40:23.482Z,8.79
2023-04-02T14:43:38.214Z,9.33
2023-04-02T14:46:12.896Z,8.75
2023-04-02T14:49:22.641Z,7.70
2023-04-02T14:52:20.924Z,7.36
2023-04-02T14:55:05.460Z,7.21
2023-04-02T14:57:52.007Z,7.22
2023-04-02T15:00:49.901Z,8.46
2023-04-02T15:03:43.254Z,8.11
2023-04-02T15:06:24.265Z,7.88
2023-04-02T15:09:46.764Z,7.41
2023-04-02T15:12:33.737Z,6.91
2023-04-02T15:15:49.277Z,6.74
2023-04-02T15:18:19.493Z,7.16
2023-04-02T15:21:20.431Z,8.98
2023-04-02T15:24:16.383Z,8.42
2023-04-02T15:28:07.477Z,7.92
2023-04-02T15:30:52.586Z,7.41
2023-04-02T15:33:28.532Z,7.07
2023-04-02T15:36:35.517Z,6.89
2023-04-02T15:39:30.947Z,6.73
2023-04-02T15:42:18.846Z,6.95
2023-04-02T15:45:17.443Z,6.81
2023-04-02T15:48:17.059Z,6.61
2023-04-02T15:50:59.157Z,6.35
2023-04-02T15:53:55.420Z,6.19
2023-04-02T15:57:11.251Z,5.82
2023-04-02T15:59:49.589Z,5.85
2023-04-02T16:03:06.662Z,5.92
2023-04-02T16:06:02.770Z,6.11
2023-04-02T16:09:02.353Z,6.17
2023-04-02T16:11:33.752Z,6.27
2023-04-02T16:14:31.768Z,6.18
2023-04-02T16:17:24.264Z,6.23
2023-04-02T16:20:16.881Z,6.00
2023-04-02T16:23:02.410Z,5.70
2023-04-02T16:26:13.126Z,5.53
2023-04-02T16:28:53.471Z,5.27
2023-04-02T16:32:17.890Z,5.32
2023-04-02T16:35:43.866Z,5.35
2023-04-02T16:39:11.161Z,5.49
2023-04-02T16:42:45.843Z,5.22
2023-04-02T16:46:11.895Z,5.05
2023-04-02T16:49:12.495Z,4.87
2023-04-02T16:52:42.624Z,4.63
2023-04-02T16:55:42.633Z,4.73
2023-04-02T16:58:33.124Z,4.76
2023-04-02T17:01:57.109Z,4.65
2023-04-02T17:05:17.341Z,4.66
2023-04-02T17:08:45.881Z,4.53
2023-04-02T17:11:49.874Z,4.56
2023-04-02T17:14:49.033Z,4.42
2023-04-02T17:17:23.256Z,4.25
2023-04-02T17:20:01.424Z,4.25
2023-04-02T17:22:32.374Z,4.19
2023-04-02T17:25:10.055Z,4.14
2023-04-02T17:27:47.435Z,3.91
2023-04-02T17:30:41.937Z,3.82
2023-04-02T17:33:18.922Z,3.83
2023-04-02T17:36:00.926Z,3.64
2023-04-02T17:38:54.816Z,3.71
2023-04-02T17:42:16.090Z,3.49
2023-04-02T17:45:34.651Z,3.32
2023-04-02T17:48:41.337Z,3.43
2023-04-02T17:52:01.062Z,3.35
2023-04-02T17:54:31.224Z,3.16
2023-04-02T17:57:34.445Z,2.99
2023-04-02T18:00:52.877Z,3.06
2023-04-02T18:04:18.536Z,3.06
2023-04-02T18:07:28.646Z,2.98
2023-04-02T18:10:43.337Z,2.81
2023-04-02T18:13:37.162Z,2.75
2023-04-02T18:16:52.620Z,2.90
2023-04-02T18:19:58.112Z,2.74
2023-04-02T18:23:05.027Z,2.64
2023-04-02T18:26:14.993Z,2.56
2023-04-02T18:29:21.726Z,2.51
2023-04-02T18:32:31.595Z,2.46
2023-04-02T18:36:02.604Z,2.43
2023-04-02T18:38:53.431Z,2.37
2023-04-02T18:42:01.539Z,2.31
2023-04-02T18:44:56.160Z,2.24
2023-04-02T18:47:46.962Z,2.23
2023-04-02T18:50:37.716Z,2.26
2023-04-02T18:53:31.832Z,2.09
2023-04-02T18:56:11.993Z,1.97
2023-04-02T18:58:53.334Z,1.92
2023-04-02T19:01:39.239Z,1.95
2023-04-02T19:04:39.367Z,1.92
2023-04-02T19:07:20.604Z,1.85
2023-04-02T19:09:53.201Z,1.86
2023-04-02T19:12:24.391Z,1.78
2023-04-02T19:14:56.064Z,1.68
2023-04-02T19:18:08.663Z,1.81
2023-04-02T19:21:19.238Z,1.73
2023-04-02T19:24:39.666Z,1.56
2023-04-02T19:28:04.622Z,1.55
2023-04-02T19:31:30.621Z,1.44
2023-04-02T19:34:28.463Z,1.60
2023-04-02T19:37:11.563Z,1.50
2023-04-02T19:40:14.743Z,1.40
2023-04-02T19:42:54.717Z,1.40
2023-04-02T19:45:43.528Z,1.37
2023-04-02T19:48:26.741Z,1.22
2023-04-02T19:50:57.237Z,1.12
2023-04-02T19:53:27.101Z,1.06
2023-04-02T19:55:57.727Z,1.09
2023-04-02T19:58:32.843Z,1.04
2023-04-02T20:01:03.908Z,1.15
2023-04-02T20:03:33.239Z,1.12
2023-04-02T20:06:01.192Z,1.05
2023-04-02T20:08:30.112Z,1.07
2023-04-02T20:10:58.867Z,1.00
2023-04-02T20:13:26.684Z,0.99
2023-04-02T20:16:02.999Z,0.97
2023-04-02T20:18:33.752Z,1.02
2023-04-02T20:21:07.577Z,1.01
2023-04-02T20:23:36.726Z,1.04
2023-04-02T20:26:08.644Z,0.99
2023-04-02T20:28:39.351Z,0.95
2023-04-02T20:31:17.959Z,0.78
2023-04-02T20:33:48.546Z,0.84
2023-04-02T20:36:18.926Z,0.75
2023-04-02T20:38:51.089Z,0.79
2023-04-02T20:41:21.659Z,0.79
2023-04-02T20:43:50.101Z,0.70
2023-04-02T20:46:20.537Z,0.65
2023-04-02T20:48:50.095Z,0.66
2023-04-02T20:51:17.495Z,0.64
2023-04-02T20:53:47.902Z,0.64
2023-04-02T20:56:20.311Z,0.52
2023-04-02T20:58:51.254Z,0.40
2023-04-02T21:01:28.410Z,0.38
2023-04-02T21:04:04.205Z,0.39
2023-04-02T21:06:40.684Z,0.45
2023-04-02T21:09:18.558Z,0.38
2023-04-02T21:11:49.143Z,0.34
2023-04-02T21:14:19.326Z,0.38
2023-04-02T21:16:49.492Z,0.38
2023-04-02T21:19:19.609Z,0.31
2023-04-02T21:21:49.724Z,0.37
2023-04-02T21:24:19.835Z,0.35
2023-04-02T21:26:50.803Z,0.27
2023-04-02T21:29:21.102Z,0.23
2023-04-02T21:31:51.341Z,0.19
2023-04-02T21:34:21.483Z,0.18
2023-04-02T21:36:51.593Z,0.04
2023-04-02T21:39:24.550Z,0.04
2023-04-02T21:41:54.133Z,0.05
2023-04-02T21:44:24.834Z,0.02
2023-04-02T21:46:54.741Z,-0.14
2023-04-02T21:49:26.404Z,-0.06
2023-04-02T21:51:55.990Z,-0.15
2023-04-02T21:54:26.092Z,-0.18
2023-04-02T21:56:56.296Z,-0.16
2023-04-02T21:59:26.490Z,-0.16
2023-04-02T22:01:56.677Z,-0.12
2023-04-02T22:04:28.688Z,-0.16
2023-04-02T22:06:59.034Z,-0.22
2023-04-02T22:09:29.812Z,-0.26
2023-04-02T22:11:59.482Z,-0.35
2023-04-02T22:14:30.838Z,-0.47
2023-04-02T22:17:01.522Z,-0.47
2023-04-02T22:19:30.626Z,-0.47
2023-04-02T22:21:59.038Z,-0.52
2023-04-02T22:24:27.625Z,-0.58
2023-04-02T22:26:56.187Z,-0.55
2023-04-02T22:29:24.369Z,-0.62
2023-04-02T22:31:52.786Z,-0.55
2023-04-02T22:34:21.434Z,-0.46
2023-04-02T22:36:49.633Z,-0.50
2023-04-02T22:39:18.178Z,-0.55
2023-04-02T22:41:46.546Z,-0.54
2023-04-02T22:44:16.190Z,-0.64
2023-04-02T22:46:44.642Z,-0.54
2023-04-02T22:49:12.543Z,-0.66
2023-04-02T22:51:40.730Z,-0.63
2023-04-02T22:54:09.083Z,-0.63
2023-04-02T22:56:37.727Z,-0.70
2023-04-02T22:59:06.090Z,-0.77
2023-04-02T23:01:36.791Z,-0.77
2023-04-02T23:04:05.756Z,-0.64
2023-04-02T23:06:34.472Z,-0.64
2023-04-02T23:09:03.100Z,-0.73
2023-04-02T23:11:31.313Z,-0.78
2023-04-02T23:13:59.547Z,-0.75
2023-04-02T23:16:29.979Z,-0.78
2023-04-02T23:19:00.244Z,-0.80
2023-04-02T23:21:30.504Z,-0.74
2023-04-02T23:24:00.797Z,-0.78
2023-04-02T23:26:31.598Z,-0.92
2023-04-02T23:29:02.009Z,-0.96
2023-04-02T23:31:33.074Z,-0.96
2023-04-02T23:34:04.458Z,-0.88
2023-04-02T23:36:36.249Z,-0.80
2023-04-02T23:39:12.973Z,-0.97
2023-04-02T23:41:43.797Z,-0.99
2023-04-02T23:44:13.512Z,-1.05
2023-04-02T23:46:43.594Z,-1.13
2023-04-02T23:49:13.892Z,-1.07
2023-04-02T23:51:43.986Z,-1.15
2023-04-02T23:54:15.611Z,-1.17
2023-04-02T23:56:44.572Z,-1.09
2023-04-02T23:59:14.741Z,-1.08
